createdAt,value
2018-07-11T00:00:42.067Z,13.90
2018-07-11T00:04:50.920Z,13.80
2018-07-11T00:08:54.583Z,13.60
2018-07-11T00:12:58.153Z,13.60
2018-07-11T00:17:10.854Z,13.50
2018-07-11T00:21:14.511Z,13.60
2018-07-11T00:25:21.251Z,13.50
2018-07-11T00:29:34.796Z,13.40
2018-07-11T00:33:39.901Z,13.30
2018-07-11T00:37:43.450Z,13.30
2018-07-11T00:41:54.430Z,13.40
2018-07-11T00:45:58.993Z,13.60
2018-07-11T00:50:07.573Z,13.50
2018-07-11T00:54:11.495Z,13.40
2018-07-11T00:58:49.910Z,13.30
2018-07-11T01:02:53.562Z,13.10
2018-07-11T01:06:57.802Z,13.10
2018-07-11T01:11:04.825Z,13.20
2018-07-11T01:15:08.951Z,13.10
2018-07-11T01:19:12.594Z,13.20
2018-07-11T01:23:18.658Z,13.30
2018-07-11T01:27:22.389Z,13.60
2018-07-11T01:31:26.330Z,13.40
2018-07-11T01:35:30.151Z,13.20
2018-07-11T01:39:33.787Z,13.20
2018-07-11T01:43:37.310Z,13.20
2018-07-11T01:47:41.418Z,13.20
2018-07-11T01:51:56.455Z,13.50
2018-07-11T01:56:00.063Z,13.70
2018-07-11T02:00:03.658Z,13.80
2018-07-11T02:04:09.367Z,14.10
2018-07-11T02:08:12.990Z,14.20
2018-07-11T02:12:16.559Z,14.10
2018-07-11T02:16:20.202Z,14.10
2018-07-11T02:20:29.090Z,14.20
2018-07-11T02:24:32.730Z,14.30
2018-07-11T02:28:36.389Z,14.30
2018-07-11T02:32:40.018Z,14.20
2018-07-11T02:36:43.628Z,13.90
2018-07-11T02:40:47.270Z,14.00
2018-07-11T02:44:51.045Z,14.10
2018-07-11T02:48:54.856Z,14.10
2018-07-11T02:53:03.741Z,14.20
2018-07-11T02:57:07.355Z,14.10
2018-07-11T03:01:10.978Z,14.40
2018-07-11T03:05:14.612Z,14.80
2018-07-11T03:09:19.286Z,14.80
2018-07-11T03:13:22.808Z,14.90
2018-07-11T03:17:26.520Z,14.90
2018-07-11T03:21:33.541Z,14.60
2018-07-11T03:25:37.101Z,14.40
2018-07-11T03:33:44.001Z,14.50
2018-07-11T03:37:47.752Z,14.50
2018-07-11T03:41:51.502Z,14.20
2018-07-11T03:45:55.071Z,14.10
2018-07-11T03:49:58.746Z,14.00
2018-07-11T03:54:03.418Z,14.20
2018-07-11T03:58:07.090Z,14.20
2018-07-11T04:02:10.611Z,14.80
2018-07-11T04:10:17.451Z,15.20
2018-07-11T04:14:21.030Z,14.90
2018-07-11T04:18:27.694Z,14.90
2018-07-11T04:30:37.754Z,15.10
2018-07-11T04:34:41.466Z,15.30
2018-07-11T04:38:45.119Z,15.50
2018-07-11T04:42:48.771Z,15.70
2018-07-11T04:46:52.431Z,15.60
2018-07-11T04:50:56.116Z,15.40
2018-07-11T04:54:59.990Z,15.10
2018-07-11T04:59:03.538Z,15.10
2018-07-11T05:03:07.329Z,15.20
2018-07-11T05:07:10.901Z,15.80
2018-07-11T05:11:14.786Z,16.20
2018-07-11T05:15:18.666Z,16.60
2018-07-11T05:19:22.253Z,16.40
2018-07-11T05:27:29.207Z,16.00
2018-07-11T05:35:46.191Z,15.60
2018-07-11T05:39:49.771Z,15.80
2018-07-11T05:43:53.609Z,15.90
2018-07-11T05:47:57.234Z,16.00
2018-07-11T05:52:01.672Z,16.40
2018-07-11T05:56:07.074Z,16.80
2018-07-11T06:00:13.431Z,16.90
2018-07-11T06:04:16.950Z,17.00
2018-07-11T06:08:20.618Z,17.00
2018-07-11T06:12:27.886Z,17.60
2018-07-11T06:16:31.418Z,17.90
2018-07-11T06:20:34.991Z,18.00
2018-07-11T06:24:43.462Z,17.70
2018-07-11T06:28:47.070Z,17.30
2018-07-11T06:32:50.695Z,16.90
2018-07-11T06:36:55.440Z,16.70
2018-07-11T06:40:59.343Z,16.80
2018-07-11T06:45:02.834Z,17.00
2018-07-11T06:49:06.487Z,17.10
2018-07-11T06:53:13.054Z,17.20
2018-07-11T06:57:16.637Z,17.40
2018-07-11T07:01:20.159Z,17.30
2018-07-11T07:05:24.422Z,17.00
2018-07-11T07:09:30.410Z,16.60
2018-07-11T07:13:34.053Z,16.60
2018-07-11T07:21:45.552Z,18.30
2018-07-11T07:25:49.174Z,18.90
2018-07-11T07:29:52.826Z,21.20
2018-07-11T07:33:56.369Z,23.10
2018-07-11T07:38:02.078Z,23.60
2018-07-11T07:42:06.040Z,23.70
2018-07-11T07:46:09.826Z,23.60
2018-07-11T07:50:17.719Z,23.30
2018-07-11T07:54:21.902Z,23.20
2018-07-11T07:58:30.713Z,22.60
2018-07-11T08:02:34.358Z,21.60
2018-07-11T08:06:38.937Z,21.50
2018-07-11T08:10:42.632Z,21.50
2018-07-11T08:14:46.369Z,22.10
2018-07-11T08:18:50.136Z,23.40
2018-07-11T08:23:14.966Z,23.40
2018-07-11T08:27:34.751Z,22.90
2018-07-11T08:31:49.932Z,22.60
2018-07-11T08:37:01.787Z,22.30
2018-07-11T08:42:18.438Z,21.50
2018-07-11T08:48:38.429Z,21.70
2018-07-11T08:55:02.191Z,21.90
2018-07-11T09:01:37.385Z,20.90
2018-07-11T09:05:55.918Z,20.10
2018-07-11T09:12:22.767Z,19.80
2018-07-11T09:17:39.667Z,19.50
2018-07-11T09:22:11.627Z,19.40
2018-07-11T09:26:16.418Z,19.40
2018-07-11T09:30:20.022Z,19.50
2018-07-11T09:34:23.682Z,19.50
2018-07-11T09:38:29.560Z,19.90
2018-07-11T09:42:33.211Z,20.50
2018-07-11T09:46:36.898Z,21.00
2018-07-11T09:50:40.527Z,22.00
2018-07-11T09:54:44.051Z,22.00
2018-07-11T09:58:48.279Z,21.70
2018-07-11T10:02:52.038Z,21.10
2018-07-11T10:06:56.143Z,20.80
2018-07-11T10:10:59.641Z,21.30
2018-07-11T10:15:03.404Z,20.90
2018-07-11T10:19:07.373Z,21.10
2018-07-11T10:23:10.999Z,21.00
2018-07-11T10:27:14.566Z,20.90
2018-07-11T10:31:18.778Z,21.20
2018-07-11T10:35:24.203Z,21.60
2018-07-11T10:39:27.810Z,21.90
2018-07-11T10:43:31.394Z,22.20
2018-07-11T10:47:38.459Z,21.70
2018-07-11T10:51:42.089Z,21.60
2018-07-11T10:55:45.843Z,21.20
2018-07-11T10:59:51.942Z,21.10
2018-07-11T11:03:57.787Z,21.20
2018-07-11T11:08:02.826Z,21.10
2018-07-11T11:12:06.469Z,21.00
2018-07-11T11:16:10.121Z,21.40
2018-07-11T11:20:15.869Z,21.70
2018-07-11T11:24:20.159Z,21.60
2018-07-11T11:28:27.394Z,21.60
2018-07-11T11:32:31.380Z,21.70
2018-07-11T11:36:35.185Z,21.50
2018-07-11T11:40:39.417Z,21.70
2018-07-11T11:44:45.803Z,21.60
2018-07-11T11:48:49.365Z,21.40
2018-07-11T11:52:53.103Z,21.20
2018-07-11T11:57:00.610Z,21.30
2018-07-11T12:01:04.274Z,21.40
2018-07-11T12:05:08.063Z,21.30
2018-07-11T12:09:16.740Z,21.20
2018-07-11T12:13:21.926Z,20.90
2018-07-11T12:17:25.538Z,20.50
2018-07-11T12:21:32.541Z,20.40
2018-07-11T12:25:36.258Z,20.20
2018-07-11T12:29:39.842Z,20.10
2018-07-11T12:33:46.155Z,20.10
2018-07-11T12:37:50.105Z,20.00
2018-07-11T12:41:54.534Z,20.00
2018-07-11T12:45:58.393Z,20.10
2018-07-11T12:50:02.128Z,20.10
2018-07-11T12:54:07.457Z,20.30
2018-07-11T12:58:11.315Z,20.50
2018-07-11T13:02:15.254Z,20.60
2018-07-11T13:06:26.553Z,20.70
2018-07-11T13:10:30.186Z,20.70
2018-07-11T13:14:37.038Z,20.80
2018-07-11T13:18:40.822Z,20.80
2018-07-11T13:22:44.668Z,20.90
2018-07-11T13:26:50.743Z,20.80
2018-07-11T13:30:56.518Z,20.80
2018-07-11T13:35:00.358Z,20.90
2018-07-11T13:39:04.879Z,21.00
2018-07-11T13:43:08.777Z,21.20
2018-07-11T13:47:19.448Z,20.90
2018-07-11T13:51:23.106Z,20.90
2018-07-11T13:55:26.854Z,21.10
2018-07-11T13:59:30.597Z,21.10
2018-07-11T14:03:34.173Z,21.00
2018-07-11T14:07:42.186Z,21.00
2018-07-11T14:11:46.209Z,20.70
2018-07-11T14:15:49.751Z,20.70
2018-07-11T14:19:53.341Z,20.70
2018-07-11T14:23:57.487Z,20.60
2018-07-11T14:28:01.175Z,20.40
2018-07-11T14:32:06.285Z,20.40
2018-07-11T14:36:12.015Z,20.40
2018-07-11T14:40:19.495Z,20.40
2018-07-11T14:44:25.392Z,20.30
2018-07-11T14:48:30.260Z,20.10
2018-07-11T14:52:33.974Z,20.00
2018-07-11T14:56:41.853Z,20.10
2018-07-11T15:00:47.755Z,20.00
2018-07-11T15:04:51.619Z,19.90
2018-07-11T15:08:59.562Z,20.00
2018-07-11T15:13:04.209Z,20.00
2018-07-11T15:17:08.063Z,20.00
2018-07-11T15:21:12.579Z,19.70
2018-07-11T15:25:16.847Z,19.60
2018-07-11T15:29:23.655Z,19.30
2018-07-11T15:33:30.134Z,19.30
2018-07-11T15:37:35.689Z,19.10
2018-07-11T15:41:41.469Z,19.00
2018-07-11T15:45:47.723Z,19.00
2018-07-11T15:49:54.548Z,19.00
2018-07-11T15:54:03.668Z,19.20
2018-07-11T15:58:09.440Z,19.10
2018-07-11T16:02:15.558Z,19.10
2018-07-11T16:06:19.522Z,19.00
2018-07-11T16:10:31.042Z,19.10
2018-07-11T16:14:35.161Z,19.10
2018-07-11T16:18:38.844Z,19.00
2018-07-11T16:22:42.522Z,19.00
2018-07-11T16:26:48.039Z,19.10
2018-07-11T16:30:53.696Z,18.80
2018-07-11T16:34:58.299Z,18.80
2018-07-11T16:39:04.742Z,18.90
2018-07-11T16:43:08.403Z,18.90
2018-07-11T16:47:18.018Z,19.10
2018-07-11T16:51:21.768Z,19.10
2018-07-11T16:55:26.366Z,19.30
2018-07-11T16:59:34.890Z,19.20
2018-07-11T17:03:48.354Z,18.90
2018-07-11T17:07:52.802Z,18.80
2018-07-11T17:11:56.550Z,18.80
2018-07-11T17:16:06.787Z,18.90
2018-07-11T17:20:11.724Z,18.90
2018-07-11T17:24:17.340Z,19.00
2018-07-11T17:28:29.111Z,19.40
2018-07-11T17:32:36.855Z,19.30
2018-07-11T17:36:41.943Z,19.10
2018-07-11T17:40:47.190Z,19.20
2018-07-11T17:45:10.484Z,18.90
2018-07-11T17:49:26.551Z,18.90
2018-07-11T17:53:40.382Z,18.90
2018-07-11T17:57:56.964Z,18.90
2018-07-11T18:02:05.492Z,18.90
2018-07-11T18:06:22.984Z,18.60
2018-07-11T18:10:36.870Z,18.30
2018-07-11T18:14:51.032Z,18.00
2018-07-11T18:19:38.086Z,17.90
2018-07-11T18:24:57.774Z,18.00
2018-07-11T18:29:21.901Z,18.20
2018-07-11T18:33:37.023Z,18.30
2018-07-11T18:37:58.876Z,18.00
2018-07-11T18:42:15.830Z,17.80
2018-07-11T18:46:30.538Z,17.70
2018-07-11T18:50:51.368Z,17.80
2018-07-11T18:56:06.415Z,17.50
2018-07-11T19:00:21.122Z,17.50
2018-07-11T19:04:41.014Z,17.50
2018-07-11T19:08:56.392Z,17.50
2018-07-11T19:13:00.412Z,17.50
2018-07-11T19:18:14.726Z,17.50
2018-07-11T19:22:26.546Z,17.50
2018-07-11T19:27:15.581Z,17.40
2018-07-11T19:32:05.724Z,17.40
2018-07-11T19:37:23.220Z,17.30
2018-07-11T19:41:40.676Z,17.30
2018-07-11T19:45:53.031Z,17.30
2018-07-11T19:50:05.735Z,17.20
2018-07-11T19:54:17.998Z,17.30
2018-07-11T19:58:23.814Z,17.30
2018-07-11T20:02:29.555Z,17.30
2018-07-11T20:06:33.413Z,17.30
2018-07-11T20:10:39.374Z,17.20
2018-07-11T20:14:43.026Z,17.30
2018-07-11T20:18:46.692Z,17.20
2018-07-11T20:22:54.265Z,17.00
2018-07-11T20:26:57.803Z,17.20
2018-07-11T20:31:01.487Z,17.20
2018-07-11T20:35:09.802Z,17.20
2018-07-11T20:39:13.416Z,17.40
2018-07-11T20:43:17.143Z,17.30
2018-07-11T20:47:23.463Z,17.60
2018-07-11T20:51:27.454Z,18.00
2018-07-11T20:55:31.030Z,18.00
2018-07-11T21:00:47.642Z,18.00
2018-07-11T21:08:20.706Z,18.00
2018-07-11T21:12:45.231Z,17.90
2018-07-11T21:19:10.230Z,17.30
2018-07-11T21:23:14.887Z,17.20
2018-07-11T21:27:23.650Z,17.10
2018-07-11T21:31:28.395Z,17.00
2018-07-11T21:35:32.094Z,17.00
2018-07-11T21:39:41.070Z,17.00
2018-07-11T21:43:51.508Z,17.00
2018-07-11T21:47:58.932Z,17.00
2018-07-11T21:52:04.827Z,17.00
2018-07-11T21:56:11.904Z,17.00
2018-07-11T22:00:31.147Z,17.00
2018-07-11T22:04:34.775Z,17.00
2018-07-11T22:08:44.981Z,16.90
2018-07-11T22:12:48.831Z,16.90
2018-07-11T22:16:56.694Z,16.90
2018-07-11T22:21:01.915Z,16.90
2018-07-11T22:25:04.716Z,16.80
2018-07-11T22:29:08.533Z,16.90
2018-07-11T22:33:12.101Z,17.00
2018-07-11T22:37:14.851Z,17.00
2018-07-11T22:41:17.230Z,17.00
2018-07-11T22:45:23.266Z,16.90
2018-07-11T22:49:26.864Z,16.90
2018-07-11T22:53:31.372Z,16.90
2018-07-11T22:57:34.910Z,16.90
2018-07-11T23:01:37.929Z,16.80
2018-07-11T23:05:41.596Z,16.80
2018-07-11T23:09:45.506Z,16.80
2018-07-11T23:13:49.567Z,16.80
2018-07-11T23:17:51.925Z,16.70
2018-07-11T23:21:55.219Z,16.80
2018-07-11T23:25:57.572Z,16.80
2018-07-11T23:30:00.333Z,16.80
2018-07-11T23:34:05.891Z,16.70
2018-07-11T23:38:08.303Z,16.80
2018-07-11T23:42:10.671Z,16.80
2018-07-11T23:46:13.063Z,16.80
2018-07-11T23:50:20.878Z,16.80
2018-07-11T23:54:23.363Z,16.70
2018-07-11T23:58:25.861Z,16.80
